Huvudsida
METAR-TAF:

METAR-TAF

Flygplatser :

Dubai, Förenade Arabemiraten

Dubais internationella flygplats

latitud: 25-15-10N, longitud: 055-21-52E, höjd: 8 m

Aktuellt väderrapport

Denna rapport gjordes för 15 timmar och 57 minuter sedan, klockan 15:00 UTC
Vind 9 kt från väst
Temperatur 22°C
Fuktighet 65%
Tryck 1013 hPa
Sikt: 8000 m

METAR: OMDB 201500Z 27009KT 8000 NSC 22/15 Q1013 NOSIG

Tid: 10:57 (06:57 UTC)

Väderprognos

Denna rapport gjordes för 19 timmar och 58 minuter sedan, klockan 10:59 UTC
Prognos gäller från 20 kl. 12 UTC till 21 kl. 18 UTC
Vind 10 kt från väst
Sikt: 8000 m
Blir
från 20 kl. 16 UTC till 20 kl. 18 UTC
Vind 5 kt från syd
Sannolikhet 30%
från 21 kl. 02 UTC till 21 kl. 04 UTC
Sikt: 4000 m
torrdis
Blir
från 21 kl. 08 UTC till 21 kl. 10 UTC
Vind 10 kt från nord/nordväst
Blir
från 21 kl. 16 UTC till 21 kl. 18 UTC
Vind 5 kt från ost

TAF: OMDB 201059Z 2012/2118 28010KT 8000 NSC BECMG 2016/2018 18005KT PROB30 2102/2104 4000 HZ BECMG 2108/2110 33010KT BECMG 2116/2118 08005KT

Aktuella väderrapporter och prognoser från 4000 flygplatser (METAR- och TAF-rapporter).

De tillgängliga stationerna syns som gula och röda prickar på kartan.

För musen över prickarna för att se namnen på stationerna.

Klicka sedan för att få väderrapporter och prognoser.

För att ändra kartan: Klicka på de gröna knapparna med ett svart kors på för att zooma in; den gröna knappen med ett streck på för att zooma ut; eller på de gröna pilarna för angränsande kartor.


METAR-TAF: